createdAt,value
2019-05-11T00:00:33.082Z,19.36
2019-05-11T00:02:59.095Z,19.35
2019-05-11T00:05:25.122Z,19.35
2019-05-11T00:07:51.143Z,19.35
2019-05-11T00:10:17.164Z,19.35
2019-05-11T00:12:43.173Z,19.35
2019-05-11T00:15:09.200Z,19.36
2019-05-11T00:17:35.215Z,19.34
2019-05-11T00:20:01.376Z,19.35
2019-05-11T00:22:27.351Z,19.35
2019-05-11T00:24:53.379Z,19.35
2019-05-11T00:27:19.399Z,19.35
2019-05-11T00:29:45.411Z,19.35
2019-05-11T00:32:11.428Z,19.35
2019-05-11T00:34:37.441Z,19.35
2019-05-11T00:37:03.467Z,19.34
2019-05-11T00:39:29.477Z,19.34
2019-05-11T00:41:55.523Z,19.34
2019-05-11T00:44:21.551Z,19.34
2019-05-11T00:46:47.561Z,19.34
2019-05-11T00:49:13.581Z,19.34
2019-05-11T00:51:39.592Z,19.34
2019-05-11T00:54:05.611Z,19.34
2019-05-11T00:56:31.633Z,19.34
2019-05-11T00:58:57.654Z,19.34
2019-05-11T01:01:23.664Z,19.34
2019-05-11T01:03:49.735Z,19.34
2019-05-11T01:06:15.761Z,19.34
2019-05-11T01:08:41.760Z,19.34
2019-05-11T01:11:07.781Z,19.34
2019-05-11T01:13:33.801Z,19.33
2019-05-11T01:15:59.819Z,19.34
2019-05-11T01:18:25.841Z,19.34
2019-05-11T01:20:51.870Z,19.34
2019-05-11T01:23:17.885Z,19.33
2019-05-11T01:25:43.924Z,19.33
2019-05-11T01:28:09.967Z,19.33
2019-05-11T01:30:38.686Z,19.33
2019-05-11T01:33:02.003Z,19.33
2019-05-11T01:35:28.019Z,19.33
2019-05-11T01:37:54.132Z,19.33
2019-05-11T01:40:20.144Z,19.33
2019-05-11T01:42:46.186Z,19.33
2019-05-11T01:45:12.211Z,19.33
2019-05-11T01:47:38.212Z,19.33
2019-05-11T01:50:04.228Z,19.33
2019-05-11T01:52:30.247Z,19.32
2019-05-11T01:54:56.267Z,19.32
2019-05-11T01:57:22.272Z,19.32
2019-05-11T01:59:48.290Z,19.33
2019-05-11T02:02:14.307Z,19.32
2019-05-11T02:04:40.364Z,19.32
2019-05-11T02:07:06.377Z,19.32
2019-05-11T02:09:32.389Z,19.32
2019-05-11T02:11:58.413Z,19.32
2019-05-11T02:14:24.436Z,19.32
2019-05-11T02:16:50.444Z,19.32
2019-05-11T02:19:16.459Z,19.32
2019-05-11T02:21:42.477Z,19.32
2019-05-11T02:24:08.486Z,19.31
2019-05-11T02:26:34.505Z,19.32
2019-05-11T02:29:00.520Z,19.32
2019-05-11T02:31:26.647Z,19.32
2019-05-11T02:33:52.559Z,19.31
2019-05-11T02:36:18.600Z,19.32
2019-05-11T02:38:44.618Z,19.32
2019-05-11T02:41:10.640Z,19.32
2019-05-11T02:43:36.651Z,19.31
2019-05-11T02:46:02.678Z,19.31
2019-05-11T02:48:28.704Z,19.31
2019-05-11T02:50:54.719Z,19.31
2019-05-11T02:53:20.805Z,19.32
2019-05-11T02:55:46.801Z,19.31
2019-05-11T02:58:12.810Z,19.31
2019-05-11T03:00:38.833Z,19.31
2019-05-11T03:03:04.848Z,19.31
2019-05-11T03:05:30.867Z,19.30
2019-05-11T03:07:56.873Z,19.31
2019-05-11T03:10:22.896Z,19.31
2019-05-11T03:12:48.905Z,19.31
2019-05-11T03:15:14.941Z,19.31
2019-05-11T03:17:40.953Z,19.30
2019-05-11T03:20:06.968Z,19.31
2019-05-11T03:22:32.989Z,19.30
2019-05-11T03:24:58.998Z,19.31
2019-05-11T03:27:25.022Z,19.31
2019-05-11T03:29:51.031Z,19.30
2019-05-11T03:32:17.054Z,19.31
2019-05-11T03:34:43.074Z,19.30
2019-05-11T03:37:09.093Z,19.31
2019-05-11T03:39:35.113Z,19.31
2019-05-11T03:42:13.792Z,19.30
2019-05-11T03:44:27.148Z,19.30
2019-05-11T03:46:53.193Z,19.30
2019-05-11T03:49:19.208Z,19.30
2019-05-11T03:51:45.229Z,19.30
2019-05-11T03:54:11.236Z,19.30
2019-05-11T03:56:37.253Z,19.30
2019-05-11T03:59:03.282Z,19.31
2019-05-11T04:01:29.293Z,19.30
2019-05-11T04:03:55.302Z,19.30
2019-05-11T04:06:21.314Z,19.30
2019-05-11T04:08:47.348Z,19.30
2019-05-11T04:11:13.477Z,19.30
2019-05-11T04:13:39.517Z,19.31
2019-05-11T04:16:05.499Z,19.31
2019-05-11T04:18:31.519Z,19.30
2019-05-11T04:20:57.509Z,19.31
2019-05-11T04:23:23.533Z,19.31
2019-05-11T04:25:49.606Z,19.31
2019-05-11T04:28:15.623Z,19.31
2019-05-11T04:30:41.629Z,19.31
2019-05-11T04:33:07.652Z,19.30
2019-05-11T04:35:33.667Z,19.31
2019-05-11T04:37:59.674Z,19.32
2019-05-11T04:40:25.691Z,19.33
2019-05-11T04:42:55.599Z,19.33
2019-05-11T04:45:17.710Z,19.33
2019-05-11T04:47:43.740Z,19.33
2019-05-11T04:50:09.730Z,19.33
2019-05-11T04:52:35.748Z,19.33
2019-05-11T04:55:01.771Z,19.33
2019-05-11T04:57:27.757Z,19.33
2019-05-11T04:59:53.778Z,19.34
2019-05-11T05:02:19.784Z,19.33
2019-05-11T05:04:45.798Z,19.34
2019-05-11T05:07:12.341Z,19.34
2019-05-11T05:09:42.423Z,19.34
2019-05-11T05:12:08.411Z,19.34
2019-05-11T05:14:29.886Z,19.34
2019-05-11T05:16:55.906Z,19.33
2019-05-11T05:19:21.900Z,19.33
2019-05-11T05:21:47.907Z,19.33
2019-05-11T05:24:14.764Z,19.33
2019-05-11T05:26:40.853Z,19.33
2019-05-11T05:29:08.827Z,19.33
2019-05-11T05:31:36.675Z,19.34
2019-05-11T05:34:10.096Z,19.34
2019-05-11T05:36:36.091Z,19.33
2019-05-11T05:39:02.115Z,19.36
2019-05-11T05:41:31.207Z,19.35
2019-05-11T05:43:57.226Z,19.37
2019-05-11T05:46:23.244Z,19.36
2019-05-11T05:48:49.267Z,19.37
2019-05-11T05:51:15.313Z,19.38
2019-05-11T05:53:41.323Z,19.37
2019-05-11T05:56:07.343Z,19.36
2019-05-11T05:58:33.387Z,19.37
2019-05-11T06:00:59.369Z,19.42
2019-05-11T06:03:25.387Z,19.45
2019-05-11T06:05:51.401Z,19.42
2019-05-11T06:08:17.427Z,19.41
2019-05-11T06:10:43.435Z,19.41
2019-05-11T06:13:09.437Z,19.40
2019-05-11T06:15:35.485Z,19.40
2019-05-11T06:18:01.523Z,19.40
2019-05-11T06:20:27.538Z,19.39
2019-05-11T06:22:53.541Z,19.39
2019-05-11T06:25:23.084Z,19.39
2019-05-11T06:27:49.079Z,19.39
2019-05-11T06:30:15.103Z,19.39
2019-05-11T06:32:41.129Z,19.39
2019-05-11T06:35:07.125Z,19.38
2019-05-11T06:37:33.376Z,19.39
2019-05-11T06:39:59.406Z,19.39
2019-05-11T06:42:25.423Z,19.37
2019-05-11T06:44:51.441Z,19.39
2019-05-11T06:47:17.507Z,19.38
2019-05-11T06:49:43.808Z,19.39
2019-05-11T06:52:09.816Z,19.38
2019-05-11T06:54:35.866Z,19.38
2019-05-11T06:57:01.950Z,19.39
2019-05-11T06:59:27.960Z,19.40
2019-05-11T07:02:01.891Z,19.40
2019-05-11T07:04:27.892Z,19.40
2019-05-11T07:06:54.594Z,19.41
2019-05-11T07:09:20.607Z,19.41
2019-05-11T07:11:57.214Z,19.42
2019-05-11T07:14:23.195Z,19.43
2019-05-11T07:16:49.215Z,19.42
2019-05-11T07:19:15.217Z,19.42
2019-05-11T07:21:41.290Z,19.41
2019-05-11T07:24:09.664Z,19.42
2019-05-11T07:26:35.674Z,19.42
2019-05-11T07:29:01.724Z,19.41
2019-05-11T07:31:27.732Z,19.41
2019-05-11T07:33:53.749Z,19.41
2019-05-11T07:36:19.746Z,19.42
2019-05-11T07:38:45.762Z,19.41
2019-05-11T07:41:12.483Z,19.41
2019-05-11T07:43:38.504Z,19.42
2019-05-11T07:46:04.545Z,19.42
2019-05-11T07:48:30.703Z,19.42
2019-05-11T07:50:58.425Z,19.42
2019-05-11T07:53:22.723Z,19.42
2019-05-11T07:55:48.739Z,19.41
2019-05-11T07:58:14.771Z,19.42
2019-05-11T08:00:40.800Z,19.42
2019-05-11T08:03:08.937Z,19.42
2019-05-11T08:05:32.863Z,19.42
2019-05-11T08:07:59.532Z,19.42
2019-05-11T08:10:24.886Z,19.42
2019-05-11T08:12:50.906Z,19.42
2019-05-11T08:15:18.353Z,19.42
2019-05-11T08:17:42.927Z,19.43
2019-05-11T08:20:08.915Z,19.43
2019-05-11T08:22:34.992Z,19.43
2019-05-11T08:25:00.978Z,19.44
2019-05-11T08:27:28.534Z,19.44
2019-05-11T08:29:53.012Z,19.44
2019-05-11T08:32:19.024Z,19.43
2019-05-11T08:34:45.195Z,19.44
2019-05-11T08:37:11.218Z,19.44
2019-05-11T08:39:38.695Z,19.44
2019-05-11T08:42:04.991Z,19.45
2019-05-11T08:44:30.923Z,19.45
2019-05-11T08:46:58.213Z,19.46
2019-05-11T08:49:22.987Z,19.46
2019-05-11T08:51:48.978Z,19.47
2019-05-11T08:54:15.040Z,19.47
2019-05-11T08:56:41.035Z,19.48
2019-05-11T08:59:07.975Z,19.47
2019-05-11T09:01:33.078Z,19.47
2019-05-11T09:03:59.102Z,19.48
2019-05-11T09:06:25.109Z,19.48
2019-05-11T09:08:51.107Z,19.48
2019-05-11T09:11:19.030Z,19.48
2019-05-11T09:13:43.127Z,19.48
2019-05-11T09:16:09.149Z,19.49
2019-05-11T09:18:35.174Z,19.49
2019-05-11T09:21:01.188Z,19.49
2019-05-11T09:23:34.572Z,19.49
2019-05-11T09:25:53.196Z,19.48
2019-05-11T09:28:19.264Z,19.48
2019-05-11T09:30:45.258Z,19.47
2019-05-11T09:33:11.585Z,19.48
2019-05-11T09:35:47.525Z,19.47
2019-05-11T09:38:03.686Z,19.48
2019-05-11T09:40:29.679Z,19.47
2019-05-11T09:42:55.708Z,19.47
2019-05-11T09:45:21.758Z,19.47
2019-05-11T09:47:47.892Z,19.47
2019-05-11T09:50:13.776Z,19.47
2019-05-11T09:52:39.784Z,19.47
2019-05-11T09:55:05.784Z,19.48
2019-05-11T09:57:31.806Z,19.49
2019-05-11T09:59:58.322Z,19.49
2019-05-11T10:02:23.820Z,19.49
2019-05-11T10:04:49.833Z,19.50
2019-05-11T10:07:17.939Z,19.49
2019-05-11T10:09:41.857Z,19.49
2019-05-11T10:12:08.280Z,19.50
2019-05-11T10:14:34.087Z,19.49
2019-05-11T10:17:00.080Z,19.50
2019-05-11T10:19:28.245Z,19.52
2019-05-11T10:21:52.096Z,19.54
2019-05-11T10:24:18.095Z,19.55
2019-05-11T10:26:44.553Z,19.56
2019-05-11T10:29:11.292Z,19.57
2019-05-11T10:31:38.545Z,19.58
2019-05-11T10:34:04.124Z,19.59
2019-05-11T10:36:30.141Z,19.60
2019-05-11T10:38:58.650Z,19.59
2019-05-11T10:41:22.211Z,19.60
2019-05-11T10:43:48.983Z,19.61
2019-05-11T10:46:19.359Z,19.62
2019-05-11T10:48:40.273Z,19.63
2019-05-11T10:51:08.263Z,19.62
2019-05-11T10:53:32.416Z,19.62
2019-05-11T10:55:58.429Z,19.62
2019-05-11T10:58:24.479Z,19.62
2019-05-11T11:00:50.482Z,19.63
2019-05-11T11:03:17.876Z,19.63
2019-05-11T11:05:42.508Z,19.62
2019-05-11T11:08:08.534Z,19.62
2019-05-11T11:10:34.542Z,19.62
2019-05-11T11:13:00.564Z,19.62
2019-05-11T11:15:28.847Z,19.62
2019-05-11T11:17:52.849Z,19.63
2019-05-11T11:20:18.909Z,19.63
2019-05-11T11:22:44.890Z,19.63
2019-05-11T11:25:10.861Z,19.63
2019-05-11T11:27:38.118Z,19.64
2019-05-11T11:30:02.988Z,19.62
2019-05-11T11:32:29.627Z,19.62
2019-05-11T11:34:57.797Z,19.62
2019-05-11T11:37:21.639Z,19.62
2019-05-11T11:39:47.748Z,19.61
2019-05-11T11:42:13.728Z,19.62
2019-05-11T11:44:39.703Z,19.62
2019-05-11T11:47:05.768Z,19.62
2019-05-11T11:49:31.937Z,19.62
2019-05-11T11:51:58.072Z,19.62
2019-05-11T11:54:24.004Z,19.63
2019-05-11T11:56:50.011Z,19.63
2019-05-11T11:59:17.838Z,19.62
2019-05-11T12:01:42.107Z,19.64
2019-05-11T12:04:08.367Z,19.63
2019-05-11T12:06:34.127Z,19.64
2019-05-11T12:09:00.117Z,19.63
2019-05-11T12:11:27.921Z,19.63
2019-05-11T12:13:52.144Z,19.63
2019-05-11T12:16:18.335Z,19.63
2019-05-11T12:18:44.197Z,19.64
2019-05-11T12:21:10.192Z,19.63
2019-05-11T12:23:38.177Z,19.63
2019-05-11T12:26:02.209Z,19.63
2019-05-11T12:28:28.286Z,19.62
2019-05-11T12:30:54.294Z,19.63
2019-05-11T12:33:20.312Z,19.62
2019-05-11T12:35:48.185Z,19.62
2019-05-11T12:38:12.369Z,19.63
2019-05-11T12:40:38.889Z,19.63
2019-05-11T12:43:04.406Z,19.63
2019-05-11T12:45:30.450Z,19.64
2019-05-11T12:47:58.563Z,19.65
2019-05-11T12:50:22.543Z,19.63
2019-05-11T12:52:48.568Z,19.64
2019-05-11T12:55:14.565Z,19.62
2019-05-11T12:57:40.597Z,19.64
2019-05-11T13:00:08.612Z,19.63
2019-05-11T13:02:32.657Z,19.64
2019-05-11T13:04:58.960Z,19.64
2019-05-11T13:07:24.953Z,19.64
2019-05-11T13:09:51.007Z,19.63
2019-05-11T13:12:18.651Z,19.65
2019-05-11T13:14:43.018Z,19.66
2019-05-11T13:17:09.013Z,19.66
2019-05-11T13:19:35.023Z,19.69
2019-05-11T13:22:01.232Z,19.70
2019-05-11T13:24:28.199Z,19.74
2019-05-11T13:26:53.338Z,19.76
2019-05-11T13:29:19.454Z,19.81
2019-05-11T13:31:45.463Z,19.80
2019-05-11T13:34:11.468Z,19.79
2019-05-11T13:36:38.127Z,19.77
2019-05-11T13:39:03.503Z,19.77
2019-05-11T13:41:29.500Z,19.77
2019-05-11T13:43:57.567Z,19.76
2019-05-11T13:46:21.518Z,19.75
2019-05-11T13:48:47.845Z,19.75
2019-05-11T13:51:13.737Z,19.75
2019-05-11T13:53:39.855Z,19.74
2019-05-11T13:56:07.778Z,19.74
2019-05-11T13:58:31.889Z,19.75
2019-05-11T14:00:58.511Z,19.74
2019-05-11T14:03:23.929Z,19.73
2019-05-11T14:05:49.983Z,19.74
2019-05-11T14:08:18.363Z,19.73
2019-05-11T14:10:42.113Z,19.72
2019-05-11T14:13:08.758Z,19.73
2019-05-11T14:15:34.285Z,19.73
2019-05-11T14:18:07.715Z,19.72
2019-05-11T14:20:28.739Z,19.72
2019-05-11T14:22:52.432Z,19.72
2019-05-11T14:25:18.888Z,19.72
2019-05-11T14:27:44.482Z,19.72
2019-05-11T14:30:10.525Z,19.72
2019-05-11T14:32:38.379Z,19.72
2019-05-11T14:35:02.545Z,19.72
2019-05-11T14:37:28.740Z,19.71
2019-05-11T14:39:54.742Z,19.71
2019-05-11T14:42:22.315Z,19.71
2019-05-11T14:44:48.301Z,19.72
2019-05-11T14:47:12.792Z,19.72
2019-05-11T14:49:38.835Z,19.73
2019-05-11T14:52:04.851Z,19.73
2019-05-11T14:54:30.900Z,19.72
2019-05-11T14:56:58.579Z,19.73
2019-05-11T14:59:22.940Z,19.73
2019-05-11T15:01:49.137Z,19.73
2019-05-11T15:04:14.970Z,19.73
2019-05-11T15:06:41.376Z,19.75
2019-05-11T15:09:07.822Z,19.74
2019-05-11T15:11:33.435Z,19.75
2019-05-11T15:13:59.485Z,19.76
2019-05-11T15:16:27.735Z,19.75
2019-05-11T15:18:51.513Z,19.75
2019-05-11T15:21:18.875Z,19.75
2019-05-11T15:23:44.012Z,19.75
2019-05-11T15:26:10.207Z,19.76
2019-05-11T15:28:37.983Z,19.77
2019-05-11T15:31:02.117Z,19.77
2019-05-11T15:33:28.165Z,19.77
2019-05-11T15:35:54.183Z,19.77
2019-05-11T15:38:20.180Z,19.77
2019-05-11T15:40:48.557Z,19.77
2019-05-11T15:43:12.200Z,19.78
2019-05-11T15:45:38.322Z,19.79
2019-05-11T15:48:04.303Z,19.80
2019-05-11T15:50:30.288Z,19.80
2019-05-11T15:52:58.179Z,19.81
2019-05-11T15:55:22.296Z,19.81
2019-05-11T15:57:48.573Z,19.83
2019-05-11T16:00:14.319Z,19.84
2019-05-11T16:02:41.207Z,19.85
2019-05-11T16:05:08.469Z,19.85
2019-05-11T16:07:32.548Z,19.86
2019-05-11T16:09:58.543Z,19.87
2019-05-11T16:12:24.624Z,19.87
2019-05-11T16:14:50.642Z,19.89
2019-05-11T16:17:16.626Z,19.90
2019-05-11T16:19:43.149Z,19.90
2019-05-11T16:22:10.058Z,19.91
2019-05-11T16:24:35.147Z,19.93
2019-05-11T16:27:01.266Z,19.92
2019-05-11T16:29:28.026Z,19.92
2019-05-11T16:31:53.405Z,19.92
2019-05-11T16:34:19.492Z,19.91
2019-05-11T16:36:47.879Z,19.90
2019-05-11T16:39:11.582Z,19.90
2019-05-11T16:41:38.203Z,19.89
2019-05-11T16:44:03.854Z,19.89
2019-05-11T16:46:29.850Z,19.88
2019-05-11T16:48:57.840Z,19.89
2019-05-11T16:51:22.001Z,19.89
2019-05-11T16:53:48.149Z,19.88
2019-05-11T16:56:14.048Z,19.88
2019-05-11T16:58:41.105Z,19.87
2019-05-11T17:01:08.407Z,19.87
2019-05-11T17:03:32.104Z,19.87
2019-05-11T17:05:58.853Z,19.86
2019-05-11T17:08:24.106Z,19.86
2019-05-11T17:10:53.251Z,19.86
2019-05-11T17:13:18.050Z,19.86
2019-05-11T17:15:42.154Z,19.86
2019-05-11T17:18:08.227Z,19.86
2019-05-11T17:20:34.247Z,19.85
2019-05-11T17:23:00.248Z,19.85
2019-05-11T17:25:28.644Z,19.85
2019-05-11T17:27:52.493Z,19.86
2019-05-11T17:30:19.340Z,19.85
2019-05-11T17:32:44.640Z,19.85
2019-05-11T17:35:10.650Z,19.85
2019-05-11T17:37:38.079Z,19.85
2019-05-11T17:40:02.959Z,19.85
2019-05-11T17:42:28.962Z,19.84
2019-05-11T17:44:55.078Z,19.84
2019-05-11T17:47:23.685Z,19.84
2019-05-11T17:49:57.392Z,19.85
2019-05-11T17:52:13.136Z,19.83
2019-05-11T17:54:39.174Z,19.83
2019-05-11T17:57:05.302Z,19.82
2019-05-11T17:59:31.198Z,19.83
2019-05-11T18:01:58.055Z,19.83
2019-05-11T18:04:23.234Z,19.83
2019-05-11T18:06:49.253Z,19.84
2019-05-11T18:09:15.295Z,19.84
2019-05-11T18:11:41.291Z,19.85
2019-05-11T18:14:08.356Z,19.83
2019-05-11T18:16:33.341Z,19.86
2019-05-11T18:18:59.414Z,19.87
2019-05-11T18:21:25.425Z,19.87
2019-05-11T18:23:51.467Z,19.86
2019-05-11T18:26:18.070Z,19.87
2019-05-11T18:28:43.513Z,19.87
2019-05-11T18:31:09.532Z,19.86
2019-05-11T18:33:35.541Z,19.86
2019-05-11T18:36:01.559Z,19.86
2019-05-11T18:38:27.777Z,19.86
2019-05-11T18:40:53.590Z,19.85
2019-05-11T18:43:19.585Z,19.86
2019-05-11T18:45:45.609Z,19.87
2019-05-11T18:48:11.611Z,19.86
2019-05-11T18:50:38.395Z,19.86
2019-05-11T18:53:03.670Z,19.87
2019-05-11T18:55:29.692Z,19.86
2019-05-11T18:57:57.986Z,19.86
2019-05-11T19:00:21.760Z,19.80
2019-05-11T19:02:49.339Z,19.84
2019-05-11T19:05:13.792Z,19.85
2019-05-11T19:07:39.785Z,19.87
2019-05-11T19:10:08.256Z,19.88
2019-05-11T19:12:31.878Z,19.90
2019-05-11T19:14:58.723Z,19.89
2019-05-11T19:17:24.209Z,19.88
2019-05-11T19:19:50.606Z,19.89
2019-05-11T19:22:18.309Z,19.89
2019-05-11T19:24:42.756Z,19.88
2019-05-11T19:27:08.762Z,19.89
2019-05-11T19:29:34.869Z,19.89
2019-05-11T19:32:00.859Z,19.88
2019-05-11T19:34:28.142Z,19.88
2019-05-11T19:36:53.040Z,19.89
2019-05-11T19:39:19.481Z,19.89
2019-05-11T19:41:45.088Z,19.88
2019-05-11T19:44:11.266Z,19.88
2019-05-11T19:46:38.801Z,19.87
2019-05-11T19:49:03.677Z,19.88
2019-05-11T19:51:29.926Z,19.88
2019-05-11T19:53:57.612Z,19.87
2019-05-11T19:56:22.042Z,19.86
2019-05-11T19:58:48.523Z,19.88
2019-05-11T20:01:14.068Z,19.87
2019-05-11T20:03:40.126Z,19.88
2019-05-11T20:06:08.529Z,19.88
2019-05-11T20:08:32.266Z,19.88
2019-05-11T20:10:58.269Z,19.87
2019-05-11T20:13:24.280Z,19.88
2019-05-11T20:15:50.562Z,19.87
2019-05-11T20:18:18.354Z,19.88
2019-05-11T20:20:42.868Z,19.88
2019-05-11T20:23:09.049Z,19.88
2019-05-11T20:25:37.362Z,19.88
2019-05-11T20:28:01.127Z,19.88
2019-05-11T20:30:27.137Z,19.88
2019-05-11T20:32:53.762Z,19.88
2019-05-11T20:35:19.775Z,19.87
2019-05-11T20:37:45.838Z,19.88
2019-05-11T20:40:11.811Z,19.89
2019-05-11T20:42:38.151Z,19.89
2019-05-11T20:45:04.102Z,19.88
2019-05-11T20:47:30.094Z,19.89
2019-05-11T20:49:58.602Z,19.88
2019-05-11T20:52:22.832Z,19.88
2019-05-11T20:54:49.230Z,19.89
2019-05-11T20:57:15.303Z,19.89
2019-05-11T20:59:41.318Z,19.90
2019-05-11T21:02:09.234Z,19.90
2019-05-11T21:04:33.338Z,19.89
2019-05-11T21:06:59.421Z,19.89
2019-05-11T21:09:25.423Z,19.89
2019-05-11T21:11:51.505Z,19.88
2019-05-11T21:14:18.200Z,19.88
2019-05-11T21:16:43.619Z,19.86
2019-05-11T21:19:09.610Z,19.87
2019-05-11T21:21:49.472Z,19.88
2019-05-11T21:24:01.620Z,19.88
2019-05-11T21:26:28.255Z,19.87
2019-05-11T21:28:53.762Z,19.87
2019-05-11T21:31:19.754Z,19.86
2019-05-11T21:33:45.775Z,19.86
2019-05-11T21:36:11.800Z,19.86
2019-05-11T21:38:38.634Z,19.85
2019-05-11T21:41:03.839Z,19.85
2019-05-11T21:43:29.890Z,19.85
2019-05-11T21:45:58.307Z,19.85
2019-05-11T21:48:21.955Z,19.85
2019-05-11T21:50:47.940Z,19.84
2019-05-11T21:53:13.963Z,19.84
2019-05-11T21:55:39.954Z,19.84
2019-05-11T21:58:05.971Z,19.83
2019-05-11T22:00:31.977Z,19.83
2019-05-11T22:02:57.989Z,19.83
2019-05-11T22:05:24.016Z,19.83
2019-05-11T22:07:50.010Z,19.82
2019-05-11T22:10:17.697Z,19.82
2019-05-11T22:12:42.022Z,19.82
2019-05-11T22:15:09.122Z,19.83
2019-05-11T22:17:34.043Z,19.82
2019-05-11T22:20:00.037Z,19.80
2019-05-11T22:22:28.558Z,19.81
2019-05-11T22:24:52.073Z,19.81
2019-05-11T22:27:18.530Z,19.81
2019-05-11T22:29:44.109Z,19.82
2019-05-11T22:32:10.141Z,19.82
2019-05-11T22:34:37.837Z,19.81
2019-05-11T22:37:02.156Z,19.81
2019-05-11T22:39:28.169Z,19.81
2019-05-11T22:41:54.172Z,19.81
2019-05-11T22:44:20.184Z,19.81
2019-05-11T22:46:47.892Z,19.81
2019-05-11T22:49:12.206Z,19.81
2019-05-11T22:51:38.223Z,19.81
2019-05-11T22:54:04.237Z,19.81
2019-05-11T22:56:30.236Z,19.80
2019-05-11T22:58:58.235Z,19.81
2019-05-11T23:01:22.258Z,19.81
2019-05-11T23:03:48.252Z,19.80
2019-05-11T23:06:14.283Z,19.80
2019-05-11T23:08:40.279Z,19.80
2019-05-11T23:11:10.286Z,19.80
2019-05-11T23:13:32.350Z,19.81
2019-05-11T23:15:58.492Z,19.80
2019-05-11T23:18:24.390Z,19.81
2019-05-11T23:20:50.407Z,19.81
2019-05-11T23:23:17.857Z,19.80
2019-05-11T23:25:42.414Z,19.80
2019-05-11T23:28:08.440Z,19.80
2019-05-11T23:30:34.434Z,19.80
2019-05-11T23:33:00.454Z,19.80
2019-05-11T23:35:28.410Z,19.80
2019-05-11T23:37:52.475Z,19.80
2019-05-11T23:40:18.487Z,19.80
2019-05-11T23:42:44.467Z,19.80
2019-05-11T23:45:10.487Z,19.78
2019-05-11T23:47:39.034Z,19.80
2019-05-11T23:50:02.535Z,19.80
2019-05-11T23:52:29.548Z,19.80
2019-05-11T23:54:54.536Z,19.79
2019-05-11T23:57:20.540Z,19.80
2019-05-11T23:59:47.769Z,19.79
